Time;durP1;ratioP1;P1;durP2;ratioP2;P2;SDS_P1;SDS_P2;PMS_P1;PMS_P2;Temp;Humidity;BMP_temperature;BMP_pressure;BME280_temperature;BME280_humidity;BME280_pressure;Samples;Min_cycle;Max_cycle;Signal;HPM_P1;HPM_P2
2021/08/07 00:01:26;;;;;;;1.40;1.30;;;15.40;99.90;;;;;;5033938;28;20188;-62
2021/08/07 00:03:53;;;;;;;1.67;1.57;;;15.40;99.90;;;;;;5034013;28;20170;-63
2021/08/07 00:06:19;;;;;;;1.97;1.87;;;15.30;99.90;;;;;;5031935;28;20425;-64
2021/08/07 00:08:45;;;;;;;7.30;2.10;;;15.30;99.90;;;;;;5032132;28;20424;-65
2021/08/07 00:11:11;;;;;;;2.50;1.57;;;15.30;99.90;;;;;;5033843;28;20463;-64
2021/08/07 00:13:37;;;;;;;1.40;1.30;;;15.30;99.90;;;;;;5033599;28;20526;-65
2021/08/07 00:16:03;;;;;;;2.20;1.80;;;15.30;99.90;;;;;;5033717;28;20879;-63
2021/08/07 00:18:29;;;;;;;2.10;1.40;;;15.30;99.90;;;;;;5033115;28;20219;-65
2021/08/07 00:20:54;;;;;;;1.83;1.73;;;15.20;99.90;;;;;;5032081;28;20416;-65
2021/08/07 00:23:20;;;;;;;2.67;2.47;;;15.20;99.90;;;;;;5013775;28;20178;-64
2021/08/07 00:25:46;;;;;;;1.73;1.63;;;15.20;99.90;;;;;;5013775;28;20174;-62
2021/08/07 00:28:11;;;;;;;1.57;1.47;;;15.20;99.90;;;;;;5013155;28;20251;-62
2021/08/07 00:30:37;;;;;;;2.23;2.10;;;15.20;99.90;;;;;;5013849;28;20221;-63
2021/08/07 00:33:03;;;;;;;1.47;1.23;;;15.20;99.90;;;;;;5013533;28;20300;-63
2021/08/07 00:35:29;;;;;;;1.93;1.83;;;15.20;99.90;;;;;;5013731;28;20170;-65
2021/08/07 00:37:54;;;;;;;1.63;1.53;;;15.20;99.90;;;;;;5031215;28;20170;-63
2021/08/07 00:40:20;;;;;;;1.80;1.70;;;15.20;99.90;;;;;;5033370;28;20182;-65
2021/08/07 00:42:46;;;;;;;1.53;1.43;;;15.20;99.90;;;;;;5033309;28;20419;-62
2021/08/07 00:45:12;;;;;;;1.63;1.53;;;15.20;99.90;;;;;;5032273;28;20192;-64
2021/08/07 00:47:38;;;;;;;3.80;2.17;;;15.20;99.90;;;;;;5032812;28;20177;-63
2021/08/07 00:50:06;;;;;;;1.87;1.77;;;15.20;99.90;;;;;;5033155;28;20766;-65
2021/08/07 00:52:32;;;;;;;1.50;1.40;;;15.30;99.90;;;;;;5033603;28;20196;-64
2021/08/07 00:54:59;;;;;;;1.30;1.20;;;15.30;99.90;;;;;;5033259;28;20419;-64
2021/08/07 00:57:25;;;;;;;7.07;1.67;;;15.30;99.90;;;;;;5031539;28;20431;-65
2021/08/07 00:59:51;;;;;;;2.80;1.67;;;15.30;99.90;;;;;;5033058;28;20775;-64
2021/08/07 01:02:19;;;;;;;1.83;1.63;;;15.30;99.90;;;;;;5033222;28;20415;-65
2021/08/07 01:05:08;;;;;;;1.93;1.73;;;15.40;99.90;;;;;;5032848;28;20228;-65
2021/08/07 01:07:55;;;;;;;1.50;1.43;;;15.40;99.90;;;;;;5032540;28;20428;-62
2021/08/07 01:10:27;;;;;;;1.50;1.40;;;15.40;99.90;;;;;;5033122;28;20400;-65
2021/08/07 01:13:10;;;;;;;2.13;1.80;;;15.40;99.90;;;;;;5032454;28;20457;-63
2021/08/07 01:15:44;;;;;;;1.73;1.63;;;15.40;99.90;;;;;;5031142;28;20425;-64
2021/08/07 01:18:14;;;;;;;1.80;1.70;;;15.40;99.90;;;;;;5032533;28;20420;-63
2021/08/07 01:20:47;;;;;;;1.90;1.80;;;15.40;99.90;;;;;;5032936;28;20409;-62
2021/08/07 01:23:21;;;;;;;1.60;1.50;;;15.40;99.90;;;;;;5033099;28;20503;-64
2021/08/07 01:26:07;;;;;;;1.67;1.57;;;15.40;99.90;;;;;;5030417;28;20396;-62
2021/08/07 01:28:37;;;;;;;1.30;1.07;;;15.40;99.90;;;;;;5012524;28;20437;-64
2021/08/07 01:31:05;;;;;;;1.60;1.53;;;15.30;99.90;;;;;;5012831;28;20840;-62
2021/08/07 01:33:31;;;;;;;3.93;2.00;;;15.30;99.90;;;;;;5013065;28;20931;-64
2021/08/07 01:35:58;;;;;;;1.10;1.10;;;15.30;99.90;;;;;;5011713;28;20429;-62
2021/08/07 01:38:24;;;;;;;1.47;1.37;;;15.30;99.90;;;;;;5012518;28;20487;-65
2021/08/07 01:40:50;;;;;;;1.87;1.70;;;15.30;99.90;;;;;;5017356;28;20416;-62
2021/08/07 01:43:15;;;;;;;1.50;1.20;;;15.30;99.90;;;;;;5032882;28;20977;-64
2021/08/07 01:45:44;;;;;;;1.90;1.70;;;15.30;99.90;;;;;;5032625;28;20184;-62
2021/08/07 01:48:31;;;;;;;1.30;1.20;;;15.30;99.90;;;;;;5032124;28;20194;-65
2021/08/07 01:51:02;;;;;;;2.37;2.17;;;15.30;99.90;;;;;;5032590;28;20408;-63
2021/08/07 01:53:30;;;;;;;1.60;1.50;;;15.30;99.90;;;;;;5032690;28;20501;-65
2021/08/07 01:56:07;;;;;;;1.70;1.60;;;15.40;99.90;;;;;;5025065;28;20506;-63
2021/08/07 01:58:43;;;;;;;2.10;1.67;;;15.40;99.90;;;;;;5015815;28;20936;-63
2021/08/07 02:01:11;;;;;;;2.10;1.60;;;15.40;99.90;;;;;;5016278;28;20416;-62
2021/08/07 02:03:39;;;;;;;2.70;1.47;;;15.40;99.90;;;;;;5016244;28;20436;-65
2021/08/07 02:06:05;;;;;;;2.10;2.00;;;15.40;99.90;;;;;;5016267;28;20456;-63
2021/08/07 02:08:33;;;;;;;2.20;1.97;;;15.40;99.90;;;;;;5015548;28;20508;-64
2021/08/07 02:10:59;;;;;;;1.73;1.63;;;15.40;99.90;;;;;;5025963;28;20427;-62
2021/08/07 02:13:26;;;;;;;2.30;1.97;;;15.40;99.90;;;;;;5035874;28;20460;-62
2021/08/07 02:15:54;;;;;;;1.50;1.40;;;15.40;99.90;;;;;;5035739;28;20759;-65
2021/08/07 02:18:22;;;;;;;1.63;1.53;;;15.40;99.90;;;;;;5035326;28;20428;-65
2021/08/07 02:20:50;;;;;;;1.50;1.40;;;15.50;99.90;;;;;;5035832;28;20412;-61
2021/08/07 02:23:17;;;;;;;2.10;1.93;;;15.50;99.90;;;;;;5035758;28;20404;-63
2021/08/07 02:25:46;;;;;;;1.33;1.33;;;15.50;99.90;;;;;;5023963;28;20422;-62
2021/08/07 02:28:12;;;;;;;1.60;1.47;;;15.50;99.90;;;;;;5015410;28;20470;-64
2021/08/07 02:30:40;;;;;;;1.27;1.10;;;15.50;99.90;;;;;;5015656;28;20457;-62
2021/08/07 02:33:07;;;;;;;1.57;1.47;;;15.50;99.90;;;;;;5015692;28;20225;-62
2021/08/07 02:35:34;;;;;;;1.90;1.80;;;15.50;99.90;;;;;;5015804;28;20406;-64
2021/08/07 02:38:00;;;;;;;2.07;1.83;;;15.50;99.90;;;;;;5015038;28;20855;-63
2021/08/07 02:40:27;;;;;;;1.90;1.70;;;15.50;99.90;;;;;;5023863;28;20413;-63
2021/08/07 02:42:54;;;;;;;1.60;1.50;;;15.60;99.90;;;;;;5035454;28;20776;-62
2021/08/07 02:45:19;;;;;;;1.90;1.80;;;15.60;99.90;;;;;;5035287;28;20462;-64
2021/08/07 02:47:46;;;;;;;1.90;1.80;;;15.60;99.90;;;;;;5034743;28;20499;-63
2021/08/07 02:50:12;;;;;;;2.03;1.93;;;15.60;99.90;;;;;;5035298;28;20265;-63
2021/08/07 02:52:38;;;;;;;5.63;2.43;;;15.60;99.90;;;;;;5033970;28;20826;-63
2021/08/07 02:55:04;;;;;;;4.50;2.60;;;15.60;99.90;;;;;;5026514;28;20418;-66
2021/08/07 02:57:30;;;;;;;1.80;1.70;;;15.70;99.90;;;;;;5014921;28;20409;-62
2021/08/07 02:59:57;;;;;;;2.40;2.20;;;15.70;99.90;;;;;;5015102;28;20432;-65
2021/08/07 03:02:23;;;;;;;2.70;2.50;;;15.70;99.90;;;;;;5015096;28;20417;-62
2021/08/07 03:04:49;;;;;;;2.63;2.37;;;15.80;99.90;;;;;;5015148;28;20420;-65
2021/08/07 03:07:14;;;;;;;1.73;1.63;;;15.80;99.90;;;;;;5014224;28;20221;-63
2021/08/07 03:09:40;;;;;;;2.00;1.80;;;15.80;99.90;;;;;;5021640;28;20205;-64
2021/08/07 03:12:06;;;;;;;2.30;2.10;;;15.80;99.90;;;;;;5034699;28;20202;-63
2021/08/07 03:14:31;;;;;;;2.37;2.20;;;15.80;99.90;;;;;;5032002;28;20186;-64
2021/08/07 03:16:57;;;;;;;2.57;2.37;;;15.80;99.90;;;;;;5014341;28;20183;-63
2021/08/07 03:19:23;;;;;;;1.57;1.47;;;15.90;99.90;;;;;;5014794;28;20281;-64
2021/08/07 03:21:49;;;;;;;2.10;1.90;;;15.90;99.90;;;;;;5015054;28;20507;-64
2021/08/07 03:24:15;;;;;;;4.43;1.90;;;15.90;99.90;;;;;;5014809;28;20437;-62
2021/08/07 03:26:40;;;;;;;3.33;2.13;;;15.80;99.90;;;;;;5014537;28;20233;-65
2021/08/07 03:29:06;;;;;;;1.93;1.80;;;15.80;99.90;;;;;;5015227;28;20461;-62
2021/08/07 03:31:32;;;;;;;3.00;2.57;;;15.70;99.90;;;;;;5034124;28;20280;-64
2021/08/07 03:33:58;;;;;;;2.10;2.00;;;15.70;99.90;;;;;;5034118;28;20174;-63
2021/08/07 03:36:24;;;;;;;12.20;8.57;;;15.60;99.90;;;;;;5034206;28;20415;-65
2021/08/07 03:38:49;;;;;;;10.23;8.57;;;15.50;99.90;;;;;;5033769;28;20197;-63
2021/08/07 03:41:15;;;;;;;8.10;4.77;;;15.40;99.90;;;;;;5034148;28;20251;-62
2021/08/07 03:43:40;;;;;;;6.70;5.43;;;15.40;99.90;;;;;;5034107;28;20242;-64
2021/08/07 03:46:06;;;;;;;4.47;3.70;;;15.40;99.90;;;;;;5033779;28;20192;-62
2021/08/07 03:48:32;;;;;;;9.37;4.20;;;15.30;99.90;;;;;;5033372;28;20211;-62
2021/08/07 03:50:57;;;;;;;2.63;2.43;;;15.30;99.90;;;;;;5034065;28;20193;-64
2021/08/07 03:53:23;;;;;;;1.67;1.57;;;15.20;99.90;;;;;;5033672;28;20299;-65
2021/08/07 03:55:49;;;;;;;3.77;3.07;;;15.20;99.90;;;;;;5033814;28;20256;-63
2021/08/07 03:58:14;;;;;;;4.13;2.30;;;15.10;99.90;;;;;;5033659;28;20224;-63
2021/08/07 04:00:40;;;;;;;4.10;2.50;;;15.10;99.90;;;;;;5016058;28;20196;-64
2021/08/07 04:03:05;;;;;;;3.10;2.37;;;15.10;99.90;;;;;;5014372;28;20672;-65
2021/08/07 04:05:31;;;;;;;2.13;1.80;;;15.10;99.90;;;;;;5013982;28;20195;-65
2021/08/07 04:08:04;;;;;;;1.97;1.77;;;15.10;99.90;;;;;;5013548;28;20284;-63
2021/08/07 04:10:30;;;;;;;2.40;2.20;;;15.00;99.90;;;;;;5013921;28;20517;-64
2021/08/07 04:12:56;;;;;;;2.40;2.20;;;15.00;99.90;;;;;;5029393;28;20957;-64
2021/08/07 04:15:22;;;;;;;2.30;2.10;;;15.00;99.90;;;;;;5033729;28;20434;-64
2021/08/07 04:17:48;;;;;;;4.23;1.40;;;15.00;99.90;;;;;;5033086;28;20206;-65
2021/08/07 04:20:13;;;;;;;2.00;1.90;;;15.00;99.90;;;;;;5032920;28;20866;-63
2021/08/07 04:22:39;;;;;;;2.53;1.90;;;15.00;99.90;;;;;;5033386;28;20273;-63
2021/08/07 04:25:07;;;;;;;2.07;1.90;;;15.00;99.90;;;;;;5033417;28;20311;-67
2021/08/07 04:27:33;;;;;;;2.00;1.90;;;15.00;99.90;;;;;;5018248;28;20711;-66
2021/08/07 04:29:58;;;;;;;4.43;2.60;;;15.00;99.90;;;;;;5013476;28;20538;-65
2021/08/07 04:32:24;;;;;;;2.60;2.00;;;15.00;99.90;;;;;;5013357;28;20285;-64
2021/08/07 04:34:50;;;;;;;2.30;2.20;;;15.00;99.90;;;;;;5013388;28;20177;-64
2021/08/07 04:37:16;;;;;;;1.57;1.50;;;15.00;99.90;;;;;;5013101;28;20413;-64
2021/08/07 04:39:42;;;;;;;2.07;1.97;;;15.10;99.90;;;;;;5013448;28;20911;-64
2021/08/07 04:42:07;;;;;;;3.03;2.83;;;15.10;99.90;;;;;;5026511;28;20594;-62
2021/08/07 04:44:33;;;;;;;1.70;1.60;;;15.10;99.90;;;;;;5033169;28;20188;-62
2021/08/07 04:46:59;;;;;;;2.27;2.10;;;15.20;99.90;;;;;;5032775;28;20173;-64
2021/08/07 04:49:25;;;;;;;2.00;1.90;;;15.30;99.90;;;;;;5033155;28;20787;-64
2021/08/07 04:51:50;;;;;;;4.83;2.23;;;15.30;99.90;;;;;;5033526;28;20728;-65
2021/08/07 04:54:16;;;;;;;1.93;1.70;;;15.30;99.90;;;;;;5033019;28;20197;-63
2021/08/07 04:56:42;;;;;;;1.80;1.60;;;15.40;99.90;;;;;;5020630;28;20175;-63
2021/08/07 04:59:08;;;;;;;1.93;1.83;;;15.40;99.90;;;;;;5013418;28;20613;-64
2021/08/07 05:01:34;;;;;;;2.30;2.20;;;15.50;99.90;;;;;;5017637;28;20452;-65
2021/08/07 05:04:00;;;;;;;3.70;1.80;;;15.50;99.90;;;;;;5032933;28;20485;-63
2021/08/07 05:06:25;;;;;;;2.07;1.97;;;15.60;99.90;;;;;;5033120;28;20618;-64
2021/08/07 05:08:51;;;;;;;1.93;1.83;;;15.70;99.90;;;;;;5032582;28;20201;-61
2021/08/07 05:11:17;;;;;;;1.60;1.50;;;15.70;99.90;;;;;;5032899;28;20521;-65
2021/08/07 05:13:42;;;;;;;1.90;1.70;;;15.80;99.90;;;;;;5033192;28;20262;-65
2021/08/07 05:16:08;;;;;;;5.30;2.13;;;15.90;99.90;;;;;;5029493;28;20638;-64
2021/08/07 05:18:34;;;;;;;6.70;1.90;;;16.00;99.90;;;;;;5012689;28;20650;-63
2021/08/07 05:20:59;;;;;;;1.37;1.37;;;16.10;99.90;;;;;;5013253;28;20193;-64
2021/08/07 05:23:25;;;;;;;1.93;1.73;;;16.20;99.90;;;;;;5013207;28;20645;-65
2021/08/07 05:25:50;;;;;;;1.67;1.57;;;16.30;99.90;;;;;;5013230;28;20589;-64
2021/08/07 05:28:16;;;;;;;2.90;1.60;;;16.30;99.90;;;;;;5012514;28;20202;-65
2021/08/07 05:30:42;;;;;;;2.00;1.90;;;16.40;99.90;;;;;;5014556;28;20201;-62
2021/08/07 05:33:07;;;;;;;1.70;1.53;;;16.50;99.90;;;;;;5017279;28;20201;-63
2021/08/07 05:35:33;;;;;;;1.67;1.57;;;16.60;99.90;;;;;;5016638;28;20166;-62
2021/08/07 05:37:59;;;;;;;1.57;1.47;;;16.70;99.90;;;;;;5016189;28;20196;-64
2021/08/07 05:40:24;;;;;;;2.27;1.77;;;16.80;99.90;;;;;;5016939;28;20196;-62
2021/08/07 05:42:50;;;;;;;2.13;2.03;;;16.80;99.90;;;;;;5016723;28;20175;-65
2021/08/07 05:45:16;;;;;;;2.47;2.27;;;16.90;99.90;;;;;;5016344;28;20175;-66
2021/08/07 05:47:42;;;;;;;1.93;1.83;;;16.90;99.90;;;;;;5021757;28;20218;-64
2021/08/07 05:50:09;;;;;;;2.37;1.70;;;16.90;99.90;;;;;;5016810;28;20180;-65
2021/08/07 05:52:36;;;;;;;1.67;1.57;;;16.90;99.90;;;;;;5016240;28;20951;-63
2021/08/07 05:55:02;;;;;;;1.80;1.70;;;17.00;99.90;;;;;;5016367;28;20744;-63
2021/08/07 05:57:27;;;;;;;2.23;2.10;;;17.00;99.90;;;;;;5015970;28;20413;-63
2021/08/07 05:59:53;;;;;;;2.00;1.90;;;17.20;99.90;;;;;;5016190;28;20428;-66
2021/08/07 06:02:18;;;;;;;2.50;2.27;;;17.40;99.90;;;;;;5016195;28;20223;-63
2021/08/07 06:04:44;;;;;;;1.90;1.80;;;17.60;99.90;;;;;;5014691;28;20186;-65
2021/08/07 06:07:10;;;;;;;2.40;1.70;;;17.70;99.90;;;;;;5015457;28;20221;-63
2021/08/07 06:09:35;;;;;;;1.50;1.40;;;17.90;99.90;;;;;;5015833;28;20586;-65
2021/08/07 06:12:01;;;;;;;1.67;1.57;;;18.00;99.90;;;;;;5015726;28;20225;-64
2021/08/07 06:14:27;;;;;;;1.17;1.17;;;18.00;99.90;;;;;;5015845;28;20732;-63
2021/08/07 06:16:53;;;;;;;1.50;1.40;;;18.10;99.90;;;;;;5032518;28;20196;-64
2021/08/07 06:19:18;;;;;;;3.77;1.40;;;18.10;99.90;;;;;;5035635;28;20568;-61
2021/08/07 06:21:44;;;;;;;1.20;1.20;;;18.20;99.90;;;;;;5035608;28;20194;-65
2021/08/07 06:24:10;;;;;;;1.57;1.47;;;18.20;99.90;;;;;;5035509;28;20193;-62
2021/08/07 06:26:36;;;;;;;2.03;1.93;;;18.10;99.90;;;;;;5035156;28;20416;-65
2021/08/07 06:29:04;;;;;;;2.73;1.53;;;18.20;99.90;;;;;;5035160;28;20229;-62
2021/08/07 06:31:29;;;;;;;2.20;1.53;;;18.20;99.90;;;;;;5019067;28;20198;-63
2021/08/07 06:33:55;;;;;;;1.70;1.60;;;18.20;99.90;;;;;;5015701;28;20476;-64
2021/08/07 06:36:21;;;;;;;1.70;1.60;;;18.30;99.90;;;;;;5015692;28;20409;-65
2021/08/07 06:38:46;;;;;;;1.00;1.00;;;18.50;99.90;;;;;;5015338;28;20266;-64
2021/08/07 06:41:12;;;;;;;1.70;1.60;;;18.60;99.90;;;;;;5015554;28;20171;-63
2021/08/07 06:43:38;;;;;;;1.47;1.37;;;18.90;99.90;;;;;;5015081;28;20182;-63
2021/08/07 06:46:03;;;;;;;1.47;1.37;;;19.10;99.90;;;;;;5015442;28;20187;-63
2021/08/07 06:48:29;;;;;;;2.13;1.80;;;19.20;99.90;;;;;;5014841;28;20203;-64
2021/08/07 06:50:55;;;;;;;1.17;1.17;;;19.50;99.90;;;;;;5014126;28;20220;-63
2021/08/07 06:53:21;;;;;;;1.30;1.20;;;19.70;99.90;;;;;;5015295;28;20461;-64
2021/08/07 06:55:47;;;;;;;1.50;1.40;;;19.90;99.90;;;;;;5015450;28;20650;-61
2021/08/07 06:58:12;;;;;;;2.87;1.20;;;20.10;99.90;;;;;;5014839;28;20480;-64
2021/08/07 07:00:39;;;;;;;1.00;1.00;;;20.30;99.90;;;;;;5028017;28;20220;-62
2021/08/07 07:03:06;;;;;;;1.13;1.13;;;20.30;99.90;;;;;;5035136;28;20252;-65
2021/08/07 07:05:32;;;;;;;1.20;1.20;;;20.40;99.90;;;;;;5035110;28;20708;-63
2021/08/07 07:07:59;;;;;;;1.17;1.10;;;20.60;99.90;;;;;;5034511;28;20407;-62
2021/08/07 07:10:25;;;;;;;2.17;0.90;;;20.80;99.90;;;;;;5034989;28;20405;-64
2021/08/07 07:12:51;;;;;;;1.47;1.10;;;21.00;99.90;;;;;;5034713;28;20503;-63
2021/08/07 07:15:17;;;;;;;1.00;0.90;;;21.00;99.90;;;;;;5033276;28;20178;-64
2021/08/07 07:17:43;;;;;;;0.90;0.90;;;21.10;99.90;;;;;;5034436;28;20425;-63
2021/08/07 07:20:09;;;;;;;1.30;1.20;;;21.20;99.90;;;;;;5034256;28;20405;-64
2021/08/07 07:22:35;;;;;;;2.00;1.50;;;21.40;99.90;;;;;;5034667;28;20387;-62
2021/08/07 07:25:01;;;;;;;1.17;1.13;;;21.80;99.90;;;;;;5034736;28;20404;-65
2021/08/07 07:27:27;;;;;;;2.33;0.97;;;22.10;99.90;;;;;;5034284;28;20200;-62
2021/08/07 07:29:52;;;;;;;2.13;0.80;;;22.40;99.90;;;;;;5023357;28;20195;-62
2021/08/07 07:32:18;;;;;;;1.00;1.00;;;22.70;99.90;;;;;;5014786;28;20230;-64
2021/08/07 07:34:44;;;;;;;1.33;1.23;;;22.90;99.90;;;;;;5014594;28;20167;-62
2021/08/07 07:37:10;;;;;;;1.90;1.30;;;23.10;99.90;;;;;;5012986;28;20677;-62
2021/08/07 07:39:36;;;;;;;1.10;1.10;;;23.20;99.90;;;;;;5014375;28;20461;-63
2021/08/07 07:42:02;;;;;;;1.33;1.23;;;23.10;99.90;;;;;;5014704;28;20180;-62
2021/08/07 07:44:28;;;;;;;1.00;1.00;;;22.90;99.90;;;;;;5014602;28;20211;-62
2021/08/07 07:46:53;;;;;;;0.70;0.70;;;22.80;99.90;;;;;;5014026;28;20247;-64
2021/08/07 07:49:19;;;;;;;2.53;1.47;;;22.60;99.90;;;;;;5014040;28;20200;-61
2021/08/07 07:51:45;;;;;;;1.00;0.90;;;22.40;99.90;;;;;;5014371;28;20531;-64
2021/08/07 07:54:10;;;;;;;1.10;1.10;;;22.40;99.90;;;;;;5014477;28;20526;-62
2021/08/07 07:56:36;;;;;;;1.13;1.13;;;22.70;99.90;;;;;;5014024;28;20167;-64
2021/08/07 07:59:02;;;;;;;1.30;1.20;;;23.40;99.90;;;;;;5021674;28;20246;-63
2021/08/07 08:01:27;;;;;;;1.77;1.30;;;23.90;99.90;;;;;;5033987;28;20173;-64
2021/08/07 08:03:53;;;;;;;1.10;1.10;;;24.20;99.90;;;;;;5033966;28;20644;-64
2021/08/07 08:06:18;;;;;;;1.30;1.17;;;24.30;99.90;;;;;;5034188;28;20174;-65
2021/08/07 08:08:44;;;;;;;1.47;1.37;;;24.20;99.50;;;;;;5033476;28;20194;-62
2021/08/07 08:11:10;;;;;;;1.40;1.30;;;24.30;99.00;;;;;;5033940;28;20180;-64
2021/08/07 08:13:35;;;;;;;1.17;1.07;;;24.40;99.00;;;;;;5033395;28;20206;-63
2021/08/07 08:16:01;;;;;;;1.33;1.00;;;24.70;98.60;;;;;;5033170;28;20198;-63
2021/08/07 08:18:27;;;;;;;1.63;1.20;;;24.90;98.00;;;;;;5013430;28;20202;-64
2021/08/07 08:20:53;;;;;;;1.93;1.20;;;25.20;97.10;;;;;;5014137;28;20183;-62
2021/08/07 08:23:18;;;;;;;0.97;0.97;;;25.40;96.80;;;;;;5014209;28;20182;-65
2021/08/07 08:25:45;;;;;;;0.70;0.63;;;25.50;96.10;;;;;;5013722;28;20408;-64
2021/08/07 08:28:11;;;;;;;1.03;1.03;;;25.60;95.40;;;;;;5013254;28;20208;-64
2021/08/07 08:30:39;;;;;;;1.17;1.07;;;25.60;95.10;;;;;;5013687;28;20939;-63
2021/08/07 08:33:05;;;;;;;2.47;1.53;;;25.30;95.20;;;;;;5013796;28;20604;-64
2021/08/07 08:35:30;;;;;;;1.00;1.00;;;25.30;95.70;;;;;;5013787;28;20377;-62
2021/08/07 08:37:56;;;;;;;1.17;1.07;;;25.50;95.20;;;;;;5013210;28;20685;-64
2021/08/07 08:40:23;;;;;;;1.03;1.03;;;25.60;95.10;;;;;;5013776;28;20622;-62
2021/08/07 08:42:50;;;;;;;0.97;0.90;;;25.40;94.50;;;;;;5017317;28;20266;-64
2021/08/07 08:45:16;;;;;;;0.80;0.80;;;25.40;95.00;;;;;;5033421;28;20467;-64
2021/08/07 08:47:42;;;;;;;0.77;0.77;;;25.30;95.00;;;;;;5032781;28;20581;-64
2021/08/07 08:50:08;;;;;;;1.03;1.00;;;25.30;95.00;;;;;;5033660;28;20189;-65
2021/08/07 08:52:37;;;;;;;2.30;1.43;;;25.30;94.90;;;;;;5033283;28;20496;-63
2021/08/07 08:55:04;;;;;;;0.90;0.90;;;25.20;95.80;;;;;;5033219;28;20795;-65
2021/08/07 08:57:30;;;;;;;1.10;1.00;;;25.10;95.90;;;;;;5032559;28;20421;-63
2021/08/07 08:59:56;;;;;;;1.03;0.90;;;25.00;95.60;;;;;;5033023;28;20428;-65
2021/08/07 09:02:22;;;;;;;1.03;0.93;;;24.90;95.30;;;;;;5033200;28;20541;-64
2021/08/07 09:04:48;;;;;;;0.80;0.80;;;24.70;95.40;;;;;;5033525;28;20182;-65
2021/08/07 09:07:14;;;;;;;1.10;0.90;;;24.60;95.30;;;;;;5031589;28;20821;-62
2021/08/07 09:09:43;;;;;;;0.87;0.87;;;24.40;95.30;;;;;;5035826;28;20194;-63
2021/08/07 09:12:10;;;;;;;3.67;2.77;;;24.30;95.50;;;;;;5022893;28;20534;-62
2021/08/07 09:14:56;;;;;;;2.93;2.33;;;24.20;95.90;;;;;;5017612;28;20438;-65
2021/08/07 09:17:22;;;;;;;1.27;1.20;;;24.20;96.30;;;;;;5017049;28;20757;-64
2021/08/07 09:19:50;;;;;;;4.77;3.03;;;24.10;96.80;;;;;;5017155;28;20425;-65
2021/08/07 09:22:18;;;;;;;1.90;1.50;;;24.20;96.30;;;;;;5029702;28;20775;-63
2021/08/07 09:25:08;;;;;;;1.10;1.00;;;24.20;96.60;;;;;;5035551;28;20500;-64
2021/08/07 09:27:44;;;;;;;1.33;1.20;;;24.10;96.60;;;;;;5036561;28;20433;-64
2021/08/07 09:30:18;;;;;;;1.63;1.53;;;24.00;97.00;;;;;;5036619;28;20817;-63
2021/08/07 09:32:48;;;;;;;1.27;1.00;;;24.00;97.40;;;;;;5036787;28;20642;-62
2021/08/07 09:35:18;;;;;;;1.10;0.97;;;24.10;97.90;;;;;;5036592;28;20412;-63
2021/08/07 09:37:43;;;;;;;1.10;1.03;;;24.20;96.80;;;;;;5017693;28;20468;-64
2021/08/07 09:40:12;;;;;;;1.37;1.27;;;24.40;96.80;;;;;;5016909;28;20400;-64
2021/08/07 09:42:53;;;;;;;1.80;1.70;;;24.50;96.90;;;;;;5016672;28;20171;-62
2021/08/07 09:45:25;;;;;;;1.73;1.47;;;24.50;96.90;;;;;;5016555;28;20459;-61
2021/08/07 09:48:16;;;;;;;1.37;1.27;;;24.40;96.50;;;;;;5016407;28;20417;-63
2021/08/07 09:50:42;;;;;;;2.97;1.70;;;24.20;96.70;;;;;;5020401;28;20437;-63
2021/08/07 09:53:21;;;;;;;2.97;1.03;;;24.10;97.00;;;;;;5036411;28;20451;-64
2021/08/07 09:56:00;;;;;;;1.50;1.40;;;24.00;97.60;;;;;;5036241;28;20400;-61
2021/08/07 09:58:27;;;;;;;1.70;1.23;;;23.90;97.80;;;;;;5035877;28;20398;-63
2021/08/07 10:00:52;;;;;;;1.07;1.00;;;23.80;97.60;;;;;;5036413;28;20412;-62
2021/08/07 10:03:20;;;;;;;0.83;0.83;;;23.60;97.50;;;;;;5036103;28;20405;-61
2021/08/07 10:05:47;;;;;;;2.10;1.50;;;23.50;97.80;;;;;;5029628;28;20171;-62
2021/08/07 10:08:14;;;;;;;1.47;1.37;;;23.30;98.70;;;;;;5015859;28;20416;-64
2021/08/07 10:10:41;;;;;;;1.27;1.17;;;23.20;99.20;;;;;;5016460;28;20398;-62
2021/08/07 10:13:08;;;;;;;1.40;1.30;;;23.10;99.40;;;;;;5016255;28;20824;-64
2021/08/07 10:15:37;;;;;;;1.53;1.43;;;22.90;99.80;;;;;;5016183;28;20958;-61
2021/08/07 10:18:03;;;;;;;1.43;1.33;;;22.80;99.90;;;;;;5014465;28;20484;-63
2021/08/07 10:20:28;;;;;;;2.00;1.27;;;22.60;99.90;;;;;;5021544;28;20425;-62
2021/08/07 10:22:55;;;;;;;0.93;0.93;;;22.40;99.90;;;;;;5035818;28;20638;-62
2021/08/07 10:25:22;;;;;;;2.00;1.40;;;22.30;99.90;;;;;;5034751;28;20417;-62
2021/08/07 10:27:51;;;;;;;2.67;1.93;;;22.10;99.90;;;;;;5034993;28;20410;-63
2021/08/07 10:30:17;;;;;;;2.47;1.77;;;21.90;99.90;;;;;;5035558;28;20483;-63
2021/08/07 10:32:44;;;;;;;2.17;1.50;;;21.70;99.90;;;;;;5035582;28;20450;-64
2021/08/07 10:35:13;;;;;;;2.97;1.53;;;21.40;99.90;;;;;;5030269;28;20426;-63
2021/08/07 10:37:40;;;;;;;2.50;1.90;;;21.20;99.90;;;;;;5015206;28;20529;-63
2021/08/07 10:40:08;;;;;;;3.10;2.40;;;20.80;99.90;;;;;;5015897;28;20397;-63
2021/08/07 10:42:35;;;;;;;2.70;1.93;;;20.50;99.90;;;;;;5015536;28;20492;-62
2021/08/07 10:45:04;;;;;;;2.07;1.97;;;20.20;99.90;;;;;;5014435;28;20456;-62
2021/08/07 10:47:43;;;;;;;1.60;1.50;;;20.10;99.90;;;;;;5015298;28;20827;-62
2021/08/07 10:50:31;;;;;;;1.83;1.73;;;19.90;99.90;;;;;;5022199;28;20421;-64
2021/08/07 10:52:59;;;;;;;1.57;1.47;;;19.70;99.90;;;;;;5035378;28;20452;-63
2021/08/07 10:55:54;;;;;;;2.07;1.87;;;19.60;99.90;;;;;;5035404;28;20772;-62
2021/08/07 10:58:40;;;;;;;2.63;1.80;;;19.40;99.90;;;;;;5034817;28;20413;-64
2021/08/07 11:01:26;;;;;;;4.50;2.17;;;19.40;99.90;;;;;;5035092;28;20453;-65
2021/08/07 11:04:01;;;;;;;3.90;2.43;;;19.30;99.90;;;;;;5035035;28;20401;-64
2021/08/07 11:06:44;;;;;;;5.70;2.33;;;19.30;99.90;;;;;;5015376;28;20431;-60
2021/08/07 11:09:19;;;;;;;1.67;1.57;;;19.30;99.90;;;;;;5015163;28;20520;-61
2021/08/07 11:11:45;;;;;;;4.57;2.17;;;19.30;99.90;;;;;;5015158;28;20421;-63
2021/08/07 11:14:26;;;;;;;2.10;1.90;;;19.30;99.90;;;;;;5015146;28;20433;-63
2021/08/07 11:17:04;;;;;;;3.33;1.77;;;19.20;99.90;;;;;;5014634;28;20496;-63
2021/08/07 11:19:59;;;;;;;2.60;1.90;;;19.20;99.90;;;;;;5015059;28;20800;-64
2021/08/07 11:22:37;;;;;;;1.80;1.70;;;19.20;99.90;;;;;;5015046;28;20962;-63
2021/08/07 11:25:04;;;;;;;2.47;2.27;;;19.10;99.90;;;;;;5014908;28;20409;-64
2021/08/07 11:27:45;;;;;;;2.20;1.87;;;19.20;99.90;;;;;;5014220;28;20422;-62
2021/08/07 11:30:19;;;;;;;3.50;1.80;;;19.20;99.90;;;;;;5014765;28;20788;-61
2021/08/07 11:33:04;;;;;;;2.43;1.70;;;19.30;99.90;;;;;;5014695;28;20973;-64
2021/08/07 11:40:53;;;;;;;1.87;1.40;;;19.10;99.90;;;;;;5034445;28;20396;-61
2021/08/07 11:43:35;;;;;;;2.57;1.90;;;19.00;99.90;;;;;;5034380;28;20734;-63
2021/08/07 11:46:04;;;;;;;3.03;1.83;;;18.90;99.90;;;;;;5034399;28;20411;-63
2021/08/07 11:48:48;;;;;;;1.50;1.40;;;18.80;99.90;;;;;;5033304;28;20525;-62
2021/08/07 11:51:21;;;;;;;2.83;1.87;;;18.70;99.90;;;;;;5034472;28;20879;-64
2021/08/07 11:53:47;;;;;;;2.10;1.90;;;18.70;99.90;;;;;;5034302;28;20452;-63
2021/08/07 11:56:15;;;;;;;1.80;1.60;;;18.70;99.90;;;;;;5034149;28;20383;-63
2021/08/07 11:59:01;;;;;;;1.90;1.80;;;18.70;99.90;;;;;;5033525;28;20420;-62
2021/08/07 12:01:33;;;;;;;2.60;1.87;;;18.80;99.90;;;;;;5033826;28;20420;-65
2021/08/07 12:03:59;;;;;;;2.20;2.00;;;18.90;99.90;;;;;;5026205;28;20425;-63
2021/08/07 12:06:33;;;;;;;2.13;1.90;;;18.90;99.90;;;;;;5014134;28;20402;-65
2021/08/07 12:09:00;;;;;;;2.30;2.10;;;19.00;99.90;;;;;;5013966;28;20587;-63
2021/08/07 12:11:27;;;;;;;2.37;2.20;;;19.10;99.90;;;;;;5014081;28;20822;-65
2021/08/07 12:13:55;;;;;;;2.40;2.20;;;19.20;99.90;;;;;;5013881;28;20454;-62
2021/08/07 12:16:31;;;;;;;4.97;2.00;;;19.10;99.90;;;;;;5014073;28;20397;-63
2021/08/07 12:18:59;;;;;;;1.53;1.43;;;19.20;99.90;;;;;;5022846;28;20791;-65
2021/08/07 12:21:30;;;;;;;1.40;1.30;;;19.20;99.90;;;;;;5030398;28;20406;-63
2021/08/07 12:24:08;;;;;;;1.40;1.30;;;19.20;99.90;;;;;;5013852;28;20489;-62
2021/08/07 12:26:46;;;;;;;1.60;1.50;;;19.20;99.90;;;;;;5013444;28;20405;-66
2021/08/07 12:29:17;;;;;;;1.73;1.63;;;19.30;99.90;;;;;;5013652;28;20429;-63
2021/08/07 12:31:55;;;;;;;2.33;2.13;;;19.40;99.90;;;;;;5013654;28;20958;-63
2021/08/07 12:34:20;;;;;;;2.23;2.03;;;19.40;99.90;;;;;;5013468;28;20428;-65
2021/08/07 12:37:02;;;;;;;4.40;2.60;;;19.40;99.90;;;;;;5013414;28;20402;-63
2021/08/07 12:39:35;;;;;;;2.43;2.23;;;19.50;99.90;;;;;;5013132;28;20549;-65
2021/08/07 12:42:01;;;;;;;2.63;2.43;;;19.50;99.90;;;;;;5013657;28;20361;-63
2021/08/07 12:44:28;;;;;;;2.63;2.50;;;19.40;99.90;;;;;;5013609;28;20851;-65
2021/08/07 12:46:56;;;;;;;3.73;3.43;;;19.40;99.90;;;;;;5013236;28;20224;-63
2021/08/07 12:49:51;;;;;;;5.30;4.80;;;19.30;99.90;;;;;;5013483;28;20420;-65
2021/08/07 12:52:18;;;;;;;1.63;1.60;;;19.30;99.90;;;;;;5016905;28;20469;-63
2021/08/07 12:55:05;;;;;;;1.67;1.57;;;19.20;99.90;;;;;;5026585;28;20934;-65
2021/08/07 12:57:30;;;;;;;1.67;1.57;;;19.10;99.90;;;;;;5032713;28;20900;-60
2021/08/07 12:59:56;;;;;;;1.50;1.40;;;19.10;99.90;;;;;;5032995;28;20424;-61